sensor_id;sensor_type;location;lat;lon;timestamp;P1;durP1;ratioP1;P2;durP2;ratioP2
21979;SDS011;11154;48.558;9.234;2023-01-28T00:01:36;12.15;;;6.78;;
21979;SDS011;11154;48.558;9.234;2023-01-28T00:03:39;7.75;;;6.43;;
21979;SDS011;11154;48.558;9.234;2023-01-28T00:05:41;10.93;;;7.45;;
21979;SDS011;11154;48.558;9.234;2023-01-28T00:07:43;9.40;;;7.28;;
21979;SDS011;11154;48.558;9.234;2023-01-28T00:09:45;8.80;;;6.82;;
21979;SDS011;11154;48.558;9.234;2023-01-28T00:11:46;9.70;;;7.35;;
21979;SDS011;11154;48.558;9.234;2023-01-28T00:13:49;9.40;;;7.28;;
21979;SDS011;11154;48.558;9.234;2023-01-28T00:15:53;9.25;;;7.28;;
21979;SDS011;11154;48.558;9.234;2023-01-28T00:17:55;10.68;;;7.13;;
21979;SDS011;11154;48.558;9.234;2023-01-28T00:19:58;9.02;;;6.70;;
21979;SDS011;11154;48.558;9.234;2023-01-28T00:22:00;10.73;;;7.20;;
21979;SDS011;11154;48.558;9.234;2023-01-28T00:24:03;9.45;;;6.85;;
21979;SDS011;11154;48.558;9.234;2023-01-28T00:26:06;8.48;;;6.80;;
21979;SDS011;11154;48.558;9.234;2023-01-28T00:28:10;8.50;;;6.95;;
21979;SDS011;11154;48.558;9.234;2023-01-28T00:30:12;8.48;;;6.50;;
21979;SDS011;11154;48.558;9.234;2023-01-28T00:32:14;9.45;;;6.78;;
21979;SDS011;11154;48.558;9.234;2023-01-28T00:34:16;9.63;;;6.60;;
21979;SDS011;11154;48.558;9.234;2023-01-28T00:36:19;8.35;;;6.15;;
21979;SDS011;11154;48.558;9.234;2023-01-28T00:38:22;9.50;;;6.85;;
21979;SDS011;11154;48.558;9.234;2023-01-28T00:40:24;9.50;;;6.72;;
21979;SDS011;11154;48.558;9.234;2023-01-28T00:42:25;9.48;;;6.53;;
21979;SDS011;11154;48.558;9.234;2023-01-28T00:44:27;10.80;;;7.13;;
21979;SDS011;11154;48.558;9.234;2023-01-28T00:46:29;7.82;;;6.60;;
21979;SDS011;11154;48.558;9.234;2023-01-28T00:48:30;9.07;;;6.95;;
21979;SDS011;11154;48.558;9.234;2023-01-28T00:50:32;7.30;;;6.47;;
21979;SDS011;11154;48.558;9.234;2023-01-28T00:52:35;9.45;;;6.25;;
21979;SDS011;11154;48.558;9.234;2023-01-28T00:54:36;8.73;;;6.65;;
21979;SDS011;11154;48.558;9.234;2023-01-28T00:56:38;8.43;;;6.55;;
21979;SDS011;11154;48.558;9.234;2023-01-28T00:58:40;9.43;;;7.68;;
21979;SDS011;11154;48.558;9.234;2023-01-28T01:00:41;9.75;;;7.35;;
21979;SDS011;11154;48.558;9.234;2023-01-28T01:02:43;10.00;;;7.43;;
21979;SDS011;11154;48.558;9.234;2023-01-28T01:04:45;10.38;;;7.22;;
21979;SDS011;11154;48.558;9.234;2023-01-28T01:06:53;9.82;;;6.88;;
21979;SDS011;11154;48.558;9.234;2023-01-28T01:08:57;9.68;;;7.68;;
21979;SDS011;11154;48.558;9.234;2023-01-28T01:10:58;10.70;;;7.88;;
21979;SDS011;11154;48.558;9.234;2023-01-28T01:13:00;8.98;;;7.15;;
21979;SDS011;11154;48.558;9.234;2023-01-28T01:15:02;9.43;;;7.20;;
21979;SDS011;11154;48.558;9.234;2023-01-28T01:17:07;10.77;;;7.40;;
21979;SDS011;11154;48.558;9.234;2023-01-28T01:19:09;8.77;;;6.90;;
21979;SDS011;11154;48.558;9.234;2023-01-28T01:21:11;9.52;;;6.93;;
21979;SDS011;11154;48.558;9.234;2023-01-28T01:23:14;9.80;;;7.00;;
21979;SDS011;11154;48.558;9.234;2023-01-28T01:25:19;9.52;;;7.15;;
21979;SDS011;11154;48.558;9.234;2023-01-28T01:27:21;10.27;;;6.97;;
21979;SDS011;11154;48.558;9.234;2023-01-28T01:29:23;9.15;;;6.88;;
21979;SDS011;11154;48.558;9.234;2023-01-28T01:31:24;8.02;;;6.57;;
21979;SDS011;11154;48.558;9.234;2023-01-28T01:33:27;8.07;;;6.25;;
21979;SDS011;11154;48.558;9.234;2023-01-28T01:35:29;8.88;;;6.43;;
21979;SDS011;11154;48.558;9.234;2023-01-28T01:37:31;8.88;;;6.50;;
21979;SDS011;11154;48.558;9.234;2023-01-28T01:39:33;9.50;;;6.65;;
21979;SDS011;11154;48.558;9.234;2023-01-28T01:41:36;9.60;;;6.57;;
21979;SDS011;11154;48.558;9.234;2023-01-28T01:43:45;10.07;;;6.65;;
21979;SDS011;11154;48.558;9.234;2023-01-28T01:45:48;9.07;;;6.85;;
21979;SDS011;11154;48.558;9.234;2023-01-28T01:47:55;9.07;;;6.50;;
21979;SDS011;11154;48.558;9.234;2023-01-28T01:49:59;9.18;;;6.70;;
21979;SDS011;11154;48.558;9.234;2023-01-28T01:52:05;8.48;;;6.60;;
21979;SDS011;11154;48.558;9.234;2023-01-28T01:54:10;9.63;;;6.78;;
21979;SDS011;11154;48.558;9.234;2023-01-28T01:56:13;8.32;;;6.63;;
21979;SDS011;11154;48.558;9.234;2023-01-28T01:58:21;9.75;;;6.57;;
21979;SDS011;11154;48.558;9.234;2023-01-28T02:00:26;9.02;;;6.75;;
21979;SDS011;11154;48.558;9.234;2023-01-28T02:02:27;9.57;;;6.50;;
21979;SDS011;11154;48.558;9.234;2023-01-28T02:04:30;7.82;;;6.53;;
21979;SDS011;11154;48.558;9.234;2023-01-28T02:06:33;8.30;;;6.10;;
21979;SDS011;11154;48.558;9.234;2023-01-28T02:08:37;8.88;;;6.70;;
21979;SDS011;11154;48.558;9.234;2023-01-28T02:10:39;8.60;;;6.90;;
21979;SDS011;11154;48.558;9.234;2023-01-28T02:12:41;8.68;;;6.75;;
21979;SDS011;11154;48.558;9.234;2023-01-28T02:14:47;7.85;;;6.00;;
21979;SDS011;11154;48.558;9.234;2023-01-28T02:16:52;9.52;;;6.32;;
21979;SDS011;11154;48.558;9.234;2023-01-28T02:18:55;7.93;;;6.15;;
21979;SDS011;11154;48.558;9.234;2023-01-28T02:21:01;9.15;;;6.57;;
21979;SDS011;11154;48.558;9.234;2023-01-28T02:23:20;7.72;;;5.93;;
21979;SDS011;11154;48.558;9.234;2023-01-28T02:25:44;7.88;;;6.03;;
21979;SDS011;11154;48.558;9.234;2023-01-28T02:28:15;8.45;;;6.13;;
21979;SDS011;11154;48.558;9.234;2023-01-28T02:30:24;7.40;;;5.65;;
21979;SDS011;11154;48.558;9.234;2023-01-28T02:32:33;8.02;;;6.22;;
21979;SDS011;11154;48.558;9.234;2023-01-28T02:34:41;7.13;;;5.78;;
21979;SDS011;11154;48.558;9.234;2023-01-28T02:36:47;7.18;;;6.00;;
21979;SDS011;11154;48.558;9.234;2023-01-28T02:38:52;7.60;;;5.68;;
21979;SDS011;11154;48.558;9.234;2023-01-28T02:41:00;7.65;;;5.88;;
21979;SDS011;11154;48.558;9.234;2023-01-28T02:43:06;7.10;;;5.30;;
21979;SDS011;11154;48.558;9.234;2023-01-28T02:45:16;7.78;;;5.72;;
21979;SDS011;11154;48.558;9.234;2023-01-28T02:47:21;8.30;;;5.97;;
21979;SDS011;11154;48.558;9.234;2023-01-28T02:49:41;9.07;;;6.47;;
21979;SDS011;11154;48.558;9.234;2023-01-28T02:51:53;8.27;;;5.93;;
21979;SDS011;11154;48.558;9.234;2023-01-28T02:54:13;7.22;;;5.97;;
21979;SDS011;11154;48.558;9.234;2023-01-28T02:56:22;7.68;;;5.88;;
21979;SDS011;11154;48.558;9.234;2023-01-28T03:00:39;7.05;;;5.78;;
21979;SDS011;11154;48.558;9.234;2023-01-28T03:02:49;8.57;;;5.97;;
21979;SDS011;11154;48.558;9.234;2023-01-28T03:04:59;7.20;;;6.00;;
21979;SDS011;11154;48.558;9.234;2023-01-28T03:07:06;8.20;;;6.18;;
21979;SDS011;11154;48.558;9.234;2023-01-28T03:09:11;6.60;;;5.65;;
21979;SDS011;11154;48.558;9.234;2023-01-28T03:11:23;8.27;;;5.78;;
21979;SDS011;11154;48.558;9.234;2023-01-28T03:13:44;6.65;;;5.25;;
21979;SDS011;11154;48.558;9.234;2023-01-28T03:16:06;7.82;;;5.80;;
21979;SDS011;11154;48.558;9.234;2023-01-28T03:18:27;8.27;;;6.43;;
21979;SDS011;11154;48.558;9.234;2023-01-28T03:20:50;7.85;;;6.10;;
21979;SDS011;11154;48.558;9.234;2023-01-28T03:23:16;9.95;;;6.80;;
21979;SDS011;11154;48.558;9.234;2023-01-28T03:25:39;8.45;;;6.43;;
21979;SDS011;11154;48.558;9.234;2023-01-28T03:28:02;7.88;;;6.15;;
21979;SDS011;11154;48.558;9.234;2023-01-28T03:30:26;7.60;;;6.15;;
21979;SDS011;11154;48.558;9.234;2023-01-28T03:32:50;7.95;;;6.25;;
21979;SDS011;11154;48.558;9.234;2023-01-28T03:35:10;7.93;;;6.20;;
21979;SDS011;11154;48.558;9.234;2023-01-28T03:37:33;8.48;;;6.35;;
21979;SDS011;11154;48.558;9.234;2023-01-28T03:39:36;9.88;;;6.82;;
21979;SDS011;11154;48.558;9.234;2023-01-28T03:41:38;10.40;;;6.57;;
21979;SDS011;11154;48.558;9.234;2023-01-28T03:43:39;8.75;;;6.00;;
21979;SDS011;11154;48.558;9.234;2023-01-28T03:45:42;8.07;;;6.50;;
21979;SDS011;11154;48.558;9.234;2023-01-28T03:47:45;9.95;;;6.63;;
21979;SDS011;11154;48.558;9.234;2023-01-28T03:49:49;8.15;;;6.30;;
21979;SDS011;11154;48.558;9.234;2023-01-28T03:51:52;8.85;;;6.70;;
21979;SDS011;11154;48.558;9.234;2023-01-28T03:53:54;8.93;;;6.68;;
21979;SDS011;11154;48.558;9.234;2023-01-28T03:55:55;15.38;;;7.00;;
21979;SDS011;11154;48.558;9.234;2023-01-28T03:57:57;7.97;;;6.15;;
21979;SDS011;11154;48.558;9.234;2023-01-28T03:59:59;9.02;;;7.07;;
21979;SDS011;11154;48.558;9.234;2023-01-28T04:02:00;9.05;;;6.53;;
21979;SDS011;11154;48.558;9.234;2023-01-28T04:04:04;9.38;;;6.60;;
21979;SDS011;11154;48.558;9.234;2023-01-28T04:06:07;7.93;;;5.70;;
21979;SDS011;11154;48.558;9.234;2023-01-28T04:08:10;9.25;;;6.28;;
21979;SDS011;11154;48.558;9.234;2023-01-28T04:10:12;8.63;;;6.47;;
21979;SDS011;11154;48.558;9.234;2023-01-28T04:12:14;9.65;;;6.60;;
21979;SDS011;11154;48.558;9.234;2023-01-28T04:14:17;9.25;;;6.43;;
21979;SDS011;11154;48.558;9.234;2023-01-28T04:16:19;8.43;;;6.82;;
21979;SDS011;11154;48.558;9.234;2023-01-28T04:18:21;8.30;;;6.50;;
21979;SDS011;11154;48.558;9.234;2023-01-28T04:20:26;7.28;;;5.78;;
21979;SDS011;11154;48.558;9.234;2023-01-28T04:22:29;8.80;;;6.10;;
21979;SDS011;11154;48.558;9.234;2023-01-28T04:24:31;6.93;;;5.75;;
21979;SDS011;11154;48.558;9.234;2023-01-28T04:26:32;6.38;;;5.28;;
21979;SDS011;11154;48.558;9.234;2023-01-28T04:28:34;8.70;;;6.00;;
21979;SDS011;11154;48.558;9.234;2023-01-28T04:30:36;7.63;;;6.28;;
21979;SDS011;11154;48.558;9.234;2023-01-28T04:32:37;7.18;;;5.50;;
21979;SDS011;11154;48.558;9.234;2023-01-28T04:34:39;7.43;;;5.65;;
21979;SDS011;11154;48.558;9.234;2023-01-28T04:36:41;7.10;;;5.85;;
21979;SDS011;11154;48.558;9.234;2023-01-28T04:38:44;8.70;;;6.40;;
21979;SDS011;11154;48.558;9.234;2023-01-28T04:40:48;8.05;;;6.28;;
21979;SDS011;11154;48.558;9.234;2023-01-28T04:42:53;7.88;;;6.00;;
21979;SDS011;11154;48.558;9.234;2023-01-28T04:44:55;8.85;;;6.30;;
21979;SDS011;11154;48.558;9.234;2023-01-28T04:46:57;8.25;;;6.10;;
21979;SDS011;11154;48.558;9.234;2023-01-28T04:48:58;7.40;;;6.10;;
21979;SDS011;11154;48.558;9.234;2023-01-28T04:51:01;8.45;;;6.00;;
21979;SDS011;11154;48.558;9.234;2023-01-28T04:53:03;9.25;;;6.32;;
21979;SDS011;11154;48.558;9.234;2023-01-28T04:55:06;8.98;;;5.72;;
21979;SDS011;11154;48.558;9.234;2023-01-28T04:57:08;8.05;;;5.85;;
21979;SDS011;11154;48.558;9.234;2023-01-28T04:59:10;7.13;;;5.57;;
21979;SDS011;11154;48.558;9.234;2023-01-28T05:01:12;8.48;;;6.32;;
21979;SDS011;11154;48.558;9.234;2023-01-28T05:03:13;7.07;;;5.57;;
21979;SDS011;11154;48.558;9.234;2023-01-28T05:05:15;6.00;;;5.05;;
21979;SDS011;11154;48.558;9.234;2023-01-28T05:07:17;7.43;;;5.88;;
21979;SDS011;11154;48.558;9.234;2023-01-28T05:09:19;6.40;;;4.80;;
21979;SDS011;11154;48.558;9.234;2023-01-28T05:11:22;6.70;;;5.30;;
21979;SDS011;11154;48.558;9.234;2023-01-28T05:13:24;6.38;;;5.30;;
21979;SDS011;11154;48.558;9.234;2023-01-28T05:15:25;6.03;;;5.20;;
21979;SDS011;11154;48.558;9.234;2023-01-28T05:17:27;7.38;;;5.05;;
21979;SDS011;11154;48.558;9.234;2023-01-28T05:19:29;7.43;;;5.82;;
21979;SDS011;11154;48.558;9.234;2023-01-28T05:21:31;6.85;;;5.47;;
21979;SDS011;11154;48.558;9.234;2023-01-28T05:23:32;7.10;;;5.40;;
21979;SDS011;11154;48.558;9.234;2023-01-28T05:25:34;8.45;;;4.93;;
21979;SDS011;11154;48.558;9.234;2023-01-28T05:27:37;6.20;;;4.93;;
21979;SDS011;11154;48.558;9.234;2023-01-28T05:29:38;5.97;;;5.05;;
21979;SDS011;11154;48.558;9.234;2023-01-28T05:31:40;5.90;;;5.00;;
21979;SDS011;11154;48.558;9.234;2023-01-28T05:33:42;7.32;;;5.18;;
21979;SDS011;11154;48.558;9.234;2023-01-28T05:35:43;6.43;;;5.40;;
21979;SDS011;11154;48.558;9.234;2023-01-28T05:37:45;7.78;;;5.82;;
21979;SDS011;11154;48.558;9.234;2023-01-28T05:39:47;7.22;;;4.88;;
21979;SDS011;11154;48.558;9.234;2023-01-28T05:41:48;7.03;;;5.00;;
21979;SDS011;11154;48.558;9.234;2023-01-28T05:43:51;6.15;;;4.95;;
21979;SDS011;11154;48.558;9.234;2023-01-28T05:45:53;7.50;;;5.53;;
21979;SDS011;11154;48.558;9.234;2023-01-28T05:47:55;5.70;;;5.05;;
21979;SDS011;11154;48.558;9.234;2023-01-28T05:49:56;7.40;;;5.20;;
21979;SDS011;11154;48.558;9.234;2023-01-28T05:51:58;6.35;;;5.28;;
21979;SDS011;11154;48.558;9.234;2023-01-28T05:54:00;7.82;;;5.57;;
21979;SDS011;11154;48.558;9.234;2023-01-28T05:56:02;6.13;;;5.03;;
21979;SDS011;11154;48.558;9.234;2023-01-28T05:58:04;7.35;;;4.75;;
21979;SDS011;11154;48.558;9.234;2023-01-28T06:00:07;8.23;;;5.65;;
21979;SDS011;11154;48.558;9.234;2023-01-28T06:02:10;8.93;;;5.32;;
21979;SDS011;11154;48.558;9.234;2023-01-28T06:04:11;5.40;;;4.75;;
21979;SDS011;11154;48.558;9.234;2023-01-28T06:06:13;6.82;;;5.28;;
21979;SDS011;11154;48.558;9.234;2023-01-28T06:08:15;8.30;;;5.25;;
21979;SDS011;11154;48.558;9.234;2023-01-28T06:10:16;5.80;;;4.72;;
21979;SDS011;11154;48.558;9.234;2023-01-28T06:12:18;8.10;;;5.07;;
21979;SDS011;11154;48.558;9.234;2023-01-28T06:14:19;6.75;;;5.15;;
21979;SDS011;11154;48.558;9.234;2023-01-28T06:16:22;6.25;;;5.10;;
21979;SDS011;11154;48.558;9.234;2023-01-28T06:18:24;6.05;;;4.90;;
21979;SDS011;11154;48.558;9.234;2023-01-28T06:20:26;6.45;;;5.43;;
21979;SDS011;11154;48.558;9.234;2023-01-28T06:22:27;6.13;;;5.10;;
21979;SDS011;11154;48.558;9.234;2023-01-28T06:24:29;6.45;;;5.30;;
21979;SDS011;11154;48.558;9.234;2023-01-28T06:26:31;7.13;;;5.75;;
21979;SDS011;11154;48.558;9.234;2023-01-28T06:28:32;7.07;;;4.85;;
21979;SDS011;11154;48.558;9.234;2023-01-28T06:30:34;6.85;;;5.32;;
21979;SDS011;11154;48.558;9.234;2023-01-28T06:32:37;6.78;;;5.50;;
21979;SDS011;11154;48.558;9.234;2023-01-28T06:34:39;6.97;;;5.95;;
21979;SDS011;11154;48.558;9.234;2023-01-28T06:36:41;7.82;;;4.78;;
21979;SDS011;11154;48.558;9.234;2023-01-28T06:38:43;7.10;;;5.50;;
21979;SDS011;11154;48.558;9.234;2023-01-28T06:40:49;7.20;;;5.30;;
21979;SDS011;11154;48.558;9.234;2023-01-28T06:42:52;8.98;;;6.07;;
21979;SDS011;11154;48.558;9.234;2023-01-28T06:44:53;8.85;;;5.80;;
21979;SDS011;11154;48.558;9.234;2023-01-28T06:46:55;7.40;;;5.40;;
21979;SDS011;11154;48.558;9.234;2023-01-28T06:48:58;6.35;;;5.45;;
21979;SDS011;11154;48.558;9.234;2023-01-28T06:50:59;8.88;;;5.57;;
21979;SDS011;11154;48.558;9.234;2023-01-28T06:53:01;7.00;;;5.15;;
21979;SDS011;11154;48.558;9.234;2023-01-28T06:55:03;5.88;;;5.18;;
21979;SDS011;11154;48.558;9.234;2023-01-28T06:57:05;6.75;;;5.28;;
21979;SDS011;11154;48.558;9.234;2023-01-28T06:59:06;6.22;;;4.90;;
21979;SDS011;11154;48.558;9.234;2023-01-28T07:01:08;7.13;;;4.95;;
21979;SDS011;11154;48.558;9.234;2023-01-28T07:03:10;6.97;;;5.15;;
21979;SDS011;11154;48.558;9.234;2023-01-28T07:05:13;6.00;;;4.93;;
21979;SDS011;11154;48.558;9.234;2023-01-28T07:07:14;10.88;;;5.75;;
21979;SDS011;11154;48.558;9.234;2023-01-28T07:09:16;8.82;;;6.55;;
21979;SDS011;11154;48.558;9.234;2023-01-28T07:11:18;12.35;;;7.25;;
21979;SDS011;11154;48.558;9.234;2023-01-28T07:13:19;9.23;;;6.82;;
21979;SDS011;11154;48.558;9.234;2023-01-28T07:15:21;8.85;;;6.00;;
21979;SDS011;11154;48.558;9.234;2023-01-28T07:17:23;8.07;;;6.13;;
21979;SDS011;11154;48.558;9.234;2023-01-28T07:19:24;6.45;;;5.10;;
21979;SDS011;11154;48.558;9.234;2023-01-28T07:21:27;6.00;;;5.40;;
21979;SDS011;11154;48.558;9.234;2023-01-28T07:23:29;7.00;;;5.65;;
21979;SDS011;11154;48.558;9.234;2023-01-28T07:25:30;5.78;;;5.00;;
21979;SDS011;11154;48.558;9.234;2023-01-28T07:27:32;5.93;;;4.88;;
21979;SDS011;11154;48.558;9.234;2023-01-28T07:29:34;6.03;;;4.97;;
21979;SDS011;11154;48.558;9.234;2023-01-28T07:31:36;6.63;;;5.22;;
21979;SDS011;11154;48.558;9.234;2023-01-28T07:33:37;6.35;;;4.75;;
21979;SDS011;11154;48.558;9.234;2023-01-28T07:35:39;8.48;;;7.15;;
21979;SDS011;11154;48.558;9.234;2023-01-28T07:37:49;6.70;;;5.97;;
21979;SDS011;11154;48.558;9.234;2023-01-28T07:39:51;6.30;;;5.60;;
21979;SDS011;11154;48.558;9.234;2023-01-28T07:41:53;9.05;;;6.97;;
21979;SDS011;11154;48.558;9.234;2023-01-28T07:43:55;6.63;;;5.88;;
21979;SDS011;11154;48.558;9.234;2023-01-28T07:45:58;7.15;;;6.22;;
21979;SDS011;11154;48.558;9.234;2023-01-28T07:48:01;6.93;;;5.97;;
21979;SDS011;11154;48.558;9.234;2023-01-28T07:50:04;8.30;;;6.68;;
21979;SDS011;11154;48.558;9.234;2023-01-28T07:52:06;8.10;;;6.32;;
21979;SDS011;11154;48.558;9.234;2023-01-28T07:54:10;8.82;;;7.10;;
21979;SDS011;11154;48.558;9.234;2023-01-28T07:56:12;7.22;;;5.82;;
21979;SDS011;11154;48.558;9.234;2023-01-28T07:58:13;8.48;;;5.68;;
21979;SDS011;11154;48.558;9.234;2023-01-28T08:00:15;6.65;;;5.55;;
21979;SDS011;11154;48.558;9.234;2023-01-28T08:02:17;7.25;;;5.85;;
21979;SDS011;11154;48.558;9.234;2023-01-28T08:04:19;5.50;;;4.50;;
21979;SDS011;11154;48.558;9.234;2023-01-28T08:06:21;8.77;;;5.45;;
21979;SDS011;11154;48.558;9.234;2023-01-28T08:08:23;6.43;;;5.22;;
21979;SDS011;11154;48.558;9.234;2023-01-28T08:10:27;6.93;;;5.30;;
21979;SDS011;11154;48.558;9.234;2023-01-28T08:12:28;6.45;;;5.45;;
21979;SDS011;11154;48.558;9.234;2023-01-28T08:14:30;7.13;;;5.40;;
21979;SDS011;11154;48.558;9.234;2023-01-28T08:16:32;6.55;;;5.55;;
21979;SDS011;11154;48.558;9.234;2023-01-28T08:18:33;7.93;;;6.55;;
21979;SDS011;11154;48.558;9.234;2023-01-28T08:20:35;7.63;;;6.30;;
21979;SDS011;11154;48.558;9.234;2023-01-28T08:22:37;6.55;;;5.82;;
21979;SDS011;11154;48.558;9.234;2023-01-28T08:24:38;6.90;;;5.47;;
21979;SDS011;11154;48.558;9.234;2023-01-28T08:26:41;6.82;;;6.00;;
21979;SDS011;11154;48.558;9.234;2023-01-28T08:28:43;7.00;;;5.80;;
21979;SDS011;11154;48.558;9.234;2023-01-28T08:30:45;8.30;;;7.38;;
21979;SDS011;11154;48.558;9.234;2023-01-28T08:32:46;7.60;;;6.30;;
21979;SDS011;11154;48.558;9.234;2023-01-28T08:34:48;6.65;;;5.60;;
21979;SDS011;11154;48.558;9.234;2023-01-28T08:36:50;6.82;;;5.82;;
21979;SDS011;11154;48.558;9.234;2023-01-28T08:38:51;8.25;;;6.50;;
21979;SDS011;11154;48.558;9.234;2023-01-28T08:40:54;7.60;;;5.80;;
21979;SDS011;11154;48.558;9.234;2023-01-28T08:42:58;7.95;;;5.82;;
21979;SDS011;11154;48.558;9.234;2023-01-28T08:45:00;9.65;;;7.03;;
21979;SDS011;11154;48.558;9.234;2023-01-28T08:47:01;10.00;;;7.20;;
21979;SDS011;11154;48.558;9.234;2023-01-28T08:49:03;6.20;;;5.60;;
21979;SDS011;11154;48.558;9.234;2023-01-28T08:51:05;8.80;;;5.70;;
21979;SDS011;11154;48.558;9.234;2023-01-28T08:53:08;7.00;;;5.82;;
21979;SDS011;11154;48.558;9.234;2023-01-28T08:55:11;6.45;;;5.53;;
21979;SDS011;11154;48.558;9.234;2023-01-28T08:57:14;7.03;;;5.60;;
21979;SDS011;11154;48.558;9.234;2023-01-28T08:59:17;7.38;;;5.88;;
21979;SDS011;11154;48.558;9.234;2023-01-28T09:01:18;9.45;;;6.13;;
21979;SDS011;11154;48.558;9.234;2023-01-28T09:03:20;7.70;;;6.25;;
21979;SDS011;11154;48.558;9.234;2023-01-28T09:05:21;7.00;;;6.25;;
21979;SDS011;11154;48.558;9.234;2023-01-28T09:07:23;7.53;;;6.00;;
21979;SDS011;11154;48.558;9.234;2023-01-28T09:09:25;8.00;;;6.90;;
21979;SDS011;11154;48.558;9.234;2023-01-28T09:11:26;8.10;;;6.85;;
21979;SDS011;11154;48.558;9.234;2023-01-28T09:13:29;10.75;;;7.93;;
21979;SDS011;11154;48.558;9.234;2023-01-28T09:15:32;9.35;;;7.75;;
21979;SDS011;11154;48.558;9.234;2023-01-28T09:17:35;9.25;;;6.85;;
21979;SDS011;11154;48.558;9.234;2023-01-28T09:19:36;7.55;;;6.32;;
21979;SDS011;11154;48.558;9.234;2023-01-28T09:21:38;7.95;;;6.72;;
21979;SDS011;11154;48.558;9.234;2023-01-28T09:23:40;8.18;;;6.70;;
21979;SDS011;11154;48.558;9.234;2023-01-28T09:25:42;7.97;;;6.53;;
21979;SDS011;11154;48.558;9.234;2023-01-28T09:27:44;7.30;;;6.50;;
21979;SDS011;11154;48.558;9.234;2023-01-28T09:29:46;7.18;;;6.32;;
21979;SDS011;11154;48.558;9.234;2023-01-28T09:31:49;8.23;;;6.78;;
21979;SDS011;11154;48.558;9.234;2023-01-28T09:33:50;8.38;;;6.72;;
21979;SDS011;11154;48.558;9.234;2023-01-28T09:35:57;8.75;;;6.45;;
21979;SDS011;11154;48.558;9.234;2023-01-28T09:38:00;8.20;;;6.32;;
21979;SDS011;11154;48.558;9.234;2023-01-28T09:40:01;8.77;;;6.25;;
21979;SDS011;11154;48.558;9.234;2023-01-28T09:42:15;8.77;;;6.60;;
21979;SDS011;11154;48.558;9.234;2023-01-28T09:44:29;9.18;;;6.63;;
21979;SDS011;11154;48.558;9.234;2023-01-28T09:46:43;9.05;;;6.63;;
21979;SDS011;11154;48.558;9.234;2023-01-28T09:48:47;11.48;;;7.00;;
21979;SDS011;11154;48.558;9.234;2023-01-28T09:50:51;8.73;;;6.90;;
21979;SDS011;11154;48.558;9.234;2023-01-28T09:52:55;7.05;;;6.30;;
21979;SDS011;11154;48.558;9.234;2023-01-28T09:55:01;8.43;;;6.75;;
21979;SDS011;11154;48.558;9.234;2023-01-28T09:57:06;9.50;;;6.85;;
21979;SDS011;11154;48.558;9.234;2023-01-28T09:59:16;8.20;;;6.63;;
21979;SDS011;11154;48.558;9.234;2023-01-28T10:01:24;9.88;;;7.45;;
21979;SDS011;11154;48.558;9.234;2023-01-28T10:03:43;7.22;;;5.82;;
21979;SDS011;11154;48.558;9.234;2023-01-28T10:05:55;9.40;;;7.30;;
21979;SDS011;11154;48.558;9.234;2023-01-28T10:08:09;7.50;;;6.20;;
21979;SDS011;11154;48.558;9.234;2023-01-28T10:10:26;8.43;;;6.80;;
21979;SDS011;11154;48.558;9.234;2023-01-28T10:12:44;7.95;;;6.22;;
21979;SDS011;11154;48.558;9.234;2023-01-28T10:14:58;8.55;;;6.60;;
21979;SDS011;11154;48.558;9.234;2023-01-28T10:17:15;7.72;;;6.13;;
21979;SDS011;11154;48.558;9.234;2023-01-28T10:19:22;8.40;;;6.57;;
21979;SDS011;11154;48.558;9.234;2023-01-28T10:21:30;8.65;;;6.38;;
21979;SDS011;11154;48.558;9.234;2023-01-28T10:23:43;8.10;;;5.82;;
21979;SDS011;11154;48.558;9.234;2023-01-28T10:25:50;7.72;;;6.13;;
21979;SDS011;11154;48.558;9.234;2023-01-28T10:27:51;8.20;;;6.72;;
21979;SDS011;11154;48.558;9.234;2023-01-28T10:29:53;8.63;;;6.50;;
21979;SDS011;11154;48.558;9.234;2023-01-28T10:31:57;8.57;;;6.55;;
21979;SDS011;11154;48.558;9.234;2023-01-28T10:34:04;7.80;;;6.35;;
21979;SDS011;11154;48.558;9.234;2023-01-28T10:36:08;8.25;;;6.28;;
21979;SDS011;11154;48.558;9.234;2023-01-28T10:38:12;9.45;;;7.45;;
21979;SDS011;11154;48.558;9.234;2023-01-28T10:40:16;8.82;;;6.45;;
21979;SDS011;11154;48.558;9.234;2023-01-28T10:42:21;10.05;;;6.97;;
21979;SDS011;11154;48.558;9.234;2023-01-28T10:44:30;9.65;;;6.03;;
21979;SDS011;11154;48.558;9.234;2023-01-28T10:46:36;7.95;;;6.72;;
21979;SDS011;11154;48.558;9.234;2023-01-28T10:48:39;9.05;;;6.00;;
21979;SDS011;11154;48.558;9.234;2023-01-28T10:50:49;8.05;;;6.10;;
21979;SDS011;11154;48.558;9.234;2023-01-28T10:52:53;9.63;;;6.50;;
21979;SDS011;11154;48.558;9.234;2023-01-28T10:54:59;8.60;;;6.32;;
21979;SDS011;11154;48.558;9.234;2023-01-28T10:57:02;7.78;;;6.38;;
21979;SDS011;11154;48.558;9.234;2023-01-28T10:59:17;8.35;;;6.63;;
21979;SDS011;11154;48.558;9.234;2023-01-28T11:01:21;7.93;;;6.82;;
21979;SDS011;11154;48.558;9.234;2023-01-28T11:03:23;6.93;;;5.80;;
21979;SDS011;11154;48.558;9.234;2023-01-28T11:05:27;8.07;;;6.00;;
21979;SDS011;11154;48.558;9.234;2023-01-28T11:07:30;7.65;;;6.18;;
21979;SDS011;11154;48.558;9.234;2023-01-28T11:09:34;8.77;;;6.75;;
21979;SDS011;11154;48.558;9.234;2023-01-28T11:11:37;8.27;;;6.65;;
21979;SDS011;11154;48.558;9.234;2023-01-28T11:13:47;8.02;;;6.53;;
21979;SDS011;11154;48.558;9.234;2023-01-28T11:15:51;7.97;;;6.38;;
21979;SDS011;11154;48.558;9.234;2023-01-28T11:17:55;8.38;;;6.53;;
21979;SDS011;11154;48.558;9.234;2023-01-28T11:19:59;9.57;;;7.00;;
21979;SDS011;11154;48.558;9.234;2023-01-28T11:22:13;8.18;;;6.00;;
21979;SDS011;11154;48.558;9.234;2023-01-28T11:24:24;8.88;;;6.07;;
21979;SDS011;11154;48.558;9.234;2023-01-28T11:26:31;7.90;;;6.07;;
21979;SDS011;11154;48.558;9.234;2023-01-28T11:28:39;8.90;;;6.22;;
21979;SDS011;11154;48.558;9.234;2023-01-28T11:30:42;6.95;;;6.03;;
21979;SDS011;11154;48.558;9.234;2023-01-28T11:32:54;7.55;;;5.78;;
21979;SDS011;11154;48.558;9.234;2023-01-28T11:34:59;10.25;;;7.75;;
21979;SDS011;11154;48.558;9.234;2023-01-28T11:37:01;10.05;;;7.28;;
21979;SDS011;11154;48.558;9.234;2023-01-28T11:39:15;8.90;;;7.10;;
21979;SDS011;11154;48.558;9.234;2023-01-28T11:41:24;9.18;;;6.68;;
21979;SDS011;11154;48.558;9.234;2023-01-28T11:43:29;7.65;;;6.13;;
21979;SDS011;11154;48.558;9.234;2023-01-28T11:45:34;7.72;;;6.63;;
21979;SDS011;11154;48.558;9.234;2023-01-28T11:47:46;7.82;;;6.28;;
21979;SDS011;11154;48.558;9.234;2023-01-28T11:50:07;8.23;;;6.03;;
21979;SDS011;11154;48.558;9.234;2023-01-28T11:52:20;7.82;;;6.55;;
21979;SDS011;11154;48.558;9.234;2023-01-28T11:54:31;8.43;;;7.27;;
21979;SDS011;11154;48.558;9.234;2023-01-28T11:56:51;12.57;;;8.57;;
21979;SDS011;11154;48.558;9.234;2023-01-28T11:59:09;10.60;;;7.85;;
21979;SDS011;11154;48.558;9.234;2023-01-28T12:01:23;8.27;;;6.82;;
21979;SDS011;11154;48.558;9.234;2023-01-28T12:03:38;9.30;;;6.53;;
21979;SDS011;11154;48.558;9.234;2023-01-28T12:05:48;7.95;;;6.28;;
21979;SDS011;11154;48.558;9.234;2023-01-28T12:07:53;9.77;;;6.47;;
21979;SDS011;11154;48.558;9.234;2023-01-28T12:10:02;8.95;;;7.00;;
21979;SDS011;11154;48.558;9.234;2023-01-28T12:12:20;8.35;;;7.10;;
21979;SDS011;11154;48.558;9.234;2023-01-28T12:14:39;9.85;;;7.93;;
21979;SDS011;11154;48.558;9.234;2023-01-28T12:17:02;9.75;;;7.90;;
21979;SDS011;11154;48.558;9.234;2023-01-28T12:19:18;8.27;;;6.70;;
21979;SDS011;11154;48.558;9.234;2023-01-28T12:21:34;8.60;;;6.88;;
21979;SDS011;11154;48.558;9.234;2023-01-28T12:23:49;8.30;;;6.85;;
21979;SDS011;11154;48.558;9.234;2023-01-28T12:26:05;8.30;;;6.85;;
21979;SDS011;11154;48.558;9.234;2023-01-28T12:28:14;10.45;;;7.70;;
21979;SDS011;11154;48.558;9.234;2023-01-28T12:30:39;8.90;;;7.10;;
21979;SDS011;11154;48.558;9.234;2023-01-28T12:33:00;8.93;;;7.45;;
21979;SDS011;11154;48.558;9.234;2023-01-28T12:35:21;8.88;;;7.75;;
21979;SDS011;11154;48.558;9.234;2023-01-28T12:39:42;8.75;;;6.72;;